createdAt,value
2022-08-24T00:01:58.423Z,20.55
2022-08-24T00:04:27.017Z,20.51
2022-08-24T00:06:56.527Z,20.48
2022-08-24T00:09:24.493Z,20.45
2022-08-24T00:11:53.787Z,20.40
2022-08-24T00:14:21.689Z,20.41
2022-08-24T00:16:49.681Z,20.36
2022-08-24T00:19:18.274Z,20.32
2022-08-24T00:21:46.089Z,20.25
2022-08-24T00:24:14.617Z,20.26
2022-08-24T00:26:42.509Z,20.22
2022-08-24T00:29:11.661Z,20.24
2022-08-24T00:31:39.584Z,20.23
2022-08-24T00:34:07.803Z,20.19
2022-08-24T00:36:36.200Z,20.20
2022-08-24T00:39:05.771Z,20.13
2022-08-24T00:41:33.782Z,20.07
2022-08-24T00:44:03.639Z,20.07
2022-08-24T00:46:43.579Z,20.08
2022-08-24T00:49:18.731Z,19.97
2022-08-24T00:51:55.529Z,20.02
2022-08-24T00:54:26.867Z,20.01
2022-08-24T00:56:58.956Z,19.97
2022-08-24T00:59:35.394Z,19.93
2022-08-24T01:02:15.319Z,19.87
2022-08-24T01:04:50.069Z,19.90
2022-08-24T01:07:18.348Z,19.88
2022-08-24T01:09:46.313Z,19.85
2022-08-24T01:12:14.193Z,19.80
2022-08-24T01:14:42.302Z,19.81
2022-08-24T01:17:29.419Z,19.78
2022-08-24T01:19:59.628Z,19.73
2022-08-24T01:22:48.329Z,19.78
2022-08-24T01:25:17.943Z,19.71
2022-08-24T01:27:46.399Z,19.75
2022-08-24T01:30:17.338Z,19.72
2022-08-24T01:32:55.174Z,19.70
2022-08-24T01:35:23.181Z,19.63
2022-08-24T01:37:52.547Z,19.60
2022-08-24T01:40:22.784Z,19.56
2022-08-24T01:42:52.055Z,19.62
2022-08-24T01:45:22.901Z,19.53
2022-08-24T01:47:50.940Z,19.57
2022-08-24T01:50:19.010Z,19.48
2022-08-24T01:53:04.308Z,19.49
2022-08-24T01:55:35.539Z,19.46
2022-08-24T01:58:04.136Z,19.42
2022-08-24T02:00:32.687Z,19.47
2022-08-24T02:03:00.616Z,19.44
2022-08-24T02:05:29.656Z,19.42
2022-08-24T02:07:58.785Z,19.42
2022-08-24T02:10:27.566Z,19.35
2022-08-24T02:12:58.999Z,19.35
2022-08-24T02:15:29.715Z,19.28
2022-08-24T02:17:59.013Z,19.24
2022-08-24T02:20:28.038Z,19.25
2022-08-24T02:22:57.082Z,19.28
2022-08-24T02:25:26.347Z,19.24
2022-08-24T02:27:56.219Z,19.25
2022-08-24T02:30:24.193Z,19.15
2022-08-24T02:32:52.089Z,19.14
2022-08-24T02:35:21.222Z,19.16
2022-08-24T02:37:50.007Z,19.13
2022-08-24T02:40:18.276Z,19.07
2022-08-24T02:42:46.774Z,19.06
2022-08-24T02:45:16.306Z,19.04
2022-08-24T02:47:45.876Z,19.00
2022-08-24T02:50:17.057Z,18.91
2022-08-24T02:52:46.215Z,18.92
2022-08-24T02:55:20.127Z,18.91
2022-08-24T02:57:52.090Z,18.88
2022-08-24T03:00:22.914Z,18.88
2022-08-24T03:02:54.787Z,18.85
2022-08-24T03:05:24.228Z,18.79
2022-08-24T03:07:52.842Z,18.79
2022-08-24T03:10:21.755Z,18.76
2022-08-24T03:12:50.613Z,18.71
2022-08-24T03:15:23.177Z,18.73
2022-08-24T03:17:52.525Z,18.66
2022-08-24T03:20:23.589Z,18.61
2022-08-24T03:22:52.123Z,18.63
2022-08-24T03:25:24.509Z,18.64
2022-08-24T03:27:53.289Z,18.63
2022-08-24T03:30:24.061Z,18.61
2022-08-24T03:32:52.615Z,18.55
2022-08-24T03:35:21.961Z,18.52
2022-08-24T03:37:50.819Z,18.54
2022-08-24T03:40:23.104Z,18.48
2022-08-24T03:42:55.679Z,18.43
2022-08-24T03:45:25.128Z,18.43
2022-08-24T03:47:55.352Z,18.41
2022-08-24T03:50:25.114Z,18.36
2022-08-24T03:52:53.566Z,18.37
2022-08-24T03:55:22.477Z,18.37
2022-08-24T03:57:50.405Z,18.34
2022-08-24T04:00:18.736Z,18.31
2022-08-24T04:02:57.229Z,18.28
2022-08-24T04:05:27.333Z,18.28
2022-08-24T04:07:55.621Z,18.23
2022-08-24T04:10:24.651Z,18.17
2022-08-24T04:12:54.888Z,18.24
2022-08-24T04:15:24.442Z,18.24
2022-08-24T04:17:52.969Z,18.22
2022-08-24T04:20:22.781Z,18.23
2022-08-24T04:23:01.851Z,18.15
2022-08-24T04:25:29.710Z,18.17
2022-08-24T04:27:58.399Z,18.18
2022-08-24T04:30:26.304Z,18.14
2022-08-24T04:33:08.544Z,18.15
2022-08-24T04:35:40.547Z,18.15
2022-08-24T04:38:09.203Z,18.16
2022-08-24T04:40:40.692Z,18.15
2022-08-24T04:43:10.425Z,18.15
2022-08-24T04:45:40.879Z,18.12
2022-08-24T04:48:09.035Z,18.16
2022-08-24T04:50:38.175Z,18.20
2022-08-24T04:53:08.519Z,18.24
2022-08-24T04:55:44.893Z,18.28
2022-08-24T04:58:13.576Z,18.28
2022-08-24T05:00:42.117Z,18.33
2022-08-24T05:03:11.271Z,18.34
2022-08-24T05:05:41.789Z,18.37
2022-08-24T05:08:11.628Z,18.41
2022-08-24T05:10:40.368Z,18.43
2022-08-24T05:13:08.789Z,18.46
2022-08-24T05:15:38.117Z,18.46
2022-08-24T05:18:07.644Z,18.46
2022-08-24T05:20:36.776Z,18.52
2022-08-24T05:23:05.308Z,18.53
2022-08-24T05:25:35.928Z,18.56
2022-08-24T05:28:04.041Z,18.62
2022-08-24T05:30:32.023Z,18.65
2022-08-24T05:32:59.981Z,18.65
2022-08-24T05:35:27.916Z,18.65
2022-08-24T05:37:56.049Z,18.71
2022-08-24T05:40:30.619Z,18.67
2022-08-24T05:43:03.541Z,18.75
2022-08-24T05:45:31.710Z,18.77
2022-08-24T05:47:59.647Z,18.84
2022-08-24T05:50:53.191Z,18.89
2022-08-24T05:53:21.307Z,18.95
2022-08-24T05:55:49.139Z,19.00
2022-08-24T05:58:30.636Z,19.10
2022-08-24T06:01:00.286Z,19.12
2022-08-24T06:03:28.707Z,19.14
2022-08-24T06:05:57.817Z,19.24
2022-08-24T06:08:26.040Z,19.32
2022-08-24T06:10:54.137Z,19.35
2022-08-24T06:13:23.532Z,19.39
2022-08-24T06:16:20.276Z,19.50
2022-08-24T06:18:50.703Z,19.54
2022-08-24T06:21:21.907Z,19.58
2022-08-24T06:23:51.063Z,19.63
2022-08-24T06:26:38.358Z,19.70
2022-08-24T06:29:08.962Z,19.79
2022-08-24T06:31:46.990Z,19.88
2022-08-24T06:34:18.957Z,19.92
2022-08-24T06:36:47.648Z,20.01
2022-08-24T06:39:15.668Z,20.07
2022-08-24T06:41:46.476Z,20.14
2022-08-24T06:44:22.602Z,20.20
2022-08-24T06:47:00.683Z,20.30
2022-08-24T06:49:28.913Z,20.36
2022-08-24T06:51:56.761Z,20.43
2022-08-24T06:54:24.944Z,20.51
2022-08-24T06:56:52.964Z,20.58
2022-08-24T06:59:22.233Z,20.66
2022-08-24T07:01:50.444Z,20.73
2022-08-24T07:04:18.956Z,20.79
2022-08-24T07:07:05.745Z,20.85
2022-08-24T07:09:34.387Z,20.93
2022-08-24T07:12:02.532Z,21.01
2022-08-24T07:14:32.512Z,21.09
2022-08-24T07:17:02.711Z,21.16
2022-08-24T07:19:32.701Z,21.26
2022-08-24T07:22:01.603Z,21.38
2022-08-24T07:24:29.520Z,21.48
2022-08-24T07:26:58.216Z,21.57
2022-08-24T07:32:16.589Z,21.70
2022-08-24T07:34:46.228Z,21.75
2022-08-24T07:37:14.273Z,21.77
2022-08-24T07:39:46.534Z,21.91
2022-08-24T07:42:20.756Z,22.01
2022-08-24T07:44:54.079Z,22.15
2022-08-24T07:47:44.556Z,22.27
2022-08-24T07:50:25.854Z,22.31
2022-08-24T07:52:53.730Z,22.43
2022-08-24T07:55:21.765Z,22.48
2022-08-24T07:57:51.082Z,22.56
2022-08-24T08:00:21.208Z,22.66
2022-08-24T08:02:56.847Z,22.72
2022-08-24T08:05:25.369Z,22.75
2022-08-24T08:07:54.981Z,22.80
2022-08-24T08:10:23.584Z,22.96
2022-08-24T08:12:53.696Z,22.98
2022-08-24T08:15:21.726Z,23.13
2022-08-24T08:18:03.492Z,23.20
2022-08-24T08:20:33.233Z,23.30
2022-08-24T08:23:19.190Z,23.40
2022-08-24T08:26:22.524Z,23.64
2022-08-24T08:29:12.938Z,23.69
2022-08-24T08:31:43.072Z,23.74
2022-08-24T08:34:14.096Z,23.88
2022-08-24T08:36:47.218Z,24.04
2022-08-24T08:39:19.981Z,24.14
2022-08-24T08:42:19.825Z,24.22
2022-08-24T08:45:28.268Z,24.28
2022-08-24T08:48:55.737Z,24.38
2022-08-24T08:51:59.410Z,24.61
2022-08-24T08:54:33.871Z,24.61
2022-08-24T08:57:17.293Z,24.67
2022-08-24T09:00:05.092Z,24.83
2022-08-24T09:03:17.382Z,25.01
2022-08-24T09:06:40.739Z,25.02
2022-08-24T09:09:27.679Z,25.10
2022-08-24T09:12:05.317Z,25.23
2022-08-24T09:15:11.922Z,25.31
2022-08-24T09:17:55.764Z,25.36
2022-08-24T09:20:41.612Z,25.54
2022-08-24T09:23:19.725Z,25.48
2022-08-24T09:25:58.848Z,25.52
2022-08-24T09:28:41.068Z,25.51
2022-08-24T09:34:16.878Z,25.83
2022-08-24T09:36:55.511Z,25.84
2022-08-24T09:39:56.954Z,25.85
2022-08-24T09:43:01.338Z,25.97
2022-08-24T09:46:07.947Z,26.02
2022-08-24T09:49:10.071Z,26.16
2022-08-24T09:52:11.933Z,26.15
2022-08-24T09:54:59.436Z,26.08
2022-08-24T09:58:00.427Z,26.20
2022-08-24T10:00:35.308Z,26.38
2022-08-24T10:03:12.182Z,26.36
2022-08-24T10:06:06.118Z,26.41
2022-08-24T10:08:51.210Z,26.48
2022-08-24T10:11:27.611Z,26.46
2022-08-24T10:14:04.450Z,26.40
2022-08-24T10:16:41.575Z,26.40
2022-08-24T10:19:27.331Z,26.43
2022-08-24T10:22:03.887Z,26.60
2022-08-24T10:24:49.757Z,26.64
2022-08-24T10:27:32.224Z,26.65
2022-08-24T10:30:41.528Z,26.84
2022-08-24T10:33:18.805Z,26.73
2022-08-24T10:36:14.641Z,27.05
2022-08-24T10:39:07.696Z,27.07
2022-08-24T10:42:04.015Z,26.97
2022-08-24T10:44:50.943Z,26.97
2022-08-24T10:47:26.814Z,27.06
2022-08-24T10:50:20.883Z,27.04
2022-08-24T10:53:14.232Z,27.08
2022-08-24T10:55:44.532Z,26.97
2022-08-24T10:58:43.656Z,27.08
2022-08-24T11:01:18.124Z,27.06
2022-08-24T11:03:52.570Z,27.12
2022-08-24T11:06:21.632Z,27.16
2022-08-24T11:08:56.152Z,27.44
2022-08-24T11:11:29.568Z,27.44
2022-08-24T11:14:00.520Z,27.50
2022-08-24T11:16:32.810Z,27.41
2022-08-24T11:19:02.714Z,27.42
2022-08-24T11:21:45.090Z,27.41
2022-08-24T11:24:30.592Z,27.46
2022-08-24T11:27:04.324Z,27.53
2022-08-24T11:29:56.665Z,27.47
2022-08-24T11:32:37.673Z,27.62
2022-08-24T11:35:10.526Z,27.68
2022-08-24T11:37:40.516Z,27.58
2022-08-24T11:40:10.614Z,27.74
2022-08-24T11:43:17.764Z,27.82
2022-08-24T11:45:51.871Z,27.91
2022-08-24T11:48:36.045Z,27.81
2022-08-24T11:51:12.827Z,27.83
2022-08-24T11:53:51.943Z,27.99
2022-08-24T11:56:26.581Z,27.95
2022-08-24T11:59:03.773Z,27.84
2022-08-24T12:01:44.450Z,27.86
2022-08-24T12:04:38.044Z,28.07
2022-08-24T12:07:19.988Z,28.15
2022-08-24T12:10:03.532Z,27.97
2022-08-24T12:12:38.726Z,28.06
2022-08-24T12:15:14.259Z,28.13
2022-08-24T12:17:48.685Z,28.28
2022-08-24T12:20:27.144Z,28.27
2022-08-24T12:22:59.370Z,28.25
2022-08-24T12:25:48.084Z,28.33
2022-08-24T12:28:22.015Z,28.30
2022-08-24T12:30:53.901Z,28.33
2022-08-24T12:33:28.414Z,28.43
2022-08-24T12:36:03.356Z,28.52
2022-08-24T12:38:36.801Z,28.42
2022-08-24T12:41:17.789Z,28.54
2022-08-24T12:43:50.674Z,28.49
2022-08-24T12:46:24.537Z,28.48
2022-08-24T12:48:56.762Z,28.48
2022-08-24T12:51:46.157Z,28.53
2022-08-24T12:54:33.531Z,28.64
2022-08-24T12:57:16.650Z,28.67
2022-08-24T12:59:48.189Z,28.67
2022-08-24T13:02:36.992Z,28.71
2022-08-24T13:05:16.389Z,28.71
2022-08-24T13:07:46.584Z,28.70
2022-08-24T13:10:35.465Z,28.68
2022-08-24T13:13:18.465Z,28.78
2022-08-24T13:16:03.124Z,28.85
2022-08-24T13:19:09.949Z,28.94
2022-08-24T13:21:46.275Z,28.92
2022-08-24T13:24:53.633Z,28.97
2022-08-24T13:28:12.078Z,28.91
2022-08-24T13:31:00.761Z,28.87
2022-08-24T13:33:34.912Z,28.93
2022-08-24T13:36:10.735Z,28.97
2022-08-24T13:39:01.748Z,28.98
2022-08-24T13:41:50.142Z,28.95
2022-08-24T13:44:38.897Z,29.05
2022-08-24T13:47:13.459Z,29.06
2022-08-24T13:50:02.223Z,29.15
2022-08-24T13:52:42.627Z,29.16
2022-08-24T13:55:36.096Z,29.21
2022-08-24T13:58:19.031Z,29.28
2022-08-24T14:00:52.326Z,29.36
2022-08-24T14:03:57.421Z,29.31
2022-08-24T14:06:40.618Z,29.35
2022-08-24T14:09:37.303Z,29.40
2022-08-24T14:12:19.800Z,29.43
2022-08-24T14:15:13.024Z,29.44
2022-08-24T14:17:54.051Z,29.41
2022-08-24T14:20:57.079Z,29.43
2022-08-24T14:23:34.924Z,29.41
2022-08-24T14:26:40.619Z,29.47
2022-08-24T14:29:32.108Z,29.62
2022-08-24T14:32:35.881Z,29.70
2022-08-24T14:35:40.720Z,29.71
2022-08-24T14:38:27.061Z,29.75
2022-08-24T14:41:04.039Z,29.79
2022-08-24T14:43:47.835Z,29.82
2022-08-24T14:46:24.573Z,29.85
2022-08-24T14:49:08.934Z,29.88
2022-08-24T14:51:54.479Z,29.89
2022-08-24T14:54:32.720Z,30.02
2022-08-24T14:57:14.809Z,30.05
2022-08-24T14:59:55.148Z,30.07
2022-08-24T15:02:46.135Z,30.09
2022-08-24T15:05:23.810Z,30.20
2022-08-24T15:07:58.729Z,30.27
2022-08-24T15:10:30.149Z,30.31
2022-08-24T15:13:03.925Z,30.32
2022-08-24T15:15:35.936Z,30.42
2022-08-24T15:18:15.680Z,30.48
2022-08-24T15:20:56.702Z,30.51
2022-08-24T15:23:39.426Z,30.60
2022-08-24T15:26:15.242Z,30.77
2022-08-24T15:28:56.598Z,30.86
2022-08-24T15:31:29.829Z,30.93
2022-08-24T15:34:02.092Z,31.04
2022-08-24T15:36:33.022Z,31.42
2022-08-24T15:39:01.504Z,31.82
2022-08-24T15:41:33.087Z,32.16
2022-08-24T15:44:05.316Z,32.47
2022-08-24T15:46:38.046Z,32.72
2022-08-24T15:49:17.358Z,32.35
2022-08-24T15:51:51.798Z,32.57
2022-08-24T15:54:32.995Z,32.84
2022-08-24T15:57:04.559Z,33.00
2022-08-24T15:59:45.525Z,33.22
2022-08-24T16:02:28.600Z,33.46
2022-08-24T16:05:14.353Z,33.61
2022-08-24T16:08:10.315Z,33.77
2022-08-24T16:10:41.474Z,33.92
2022-08-24T16:13:14.572Z,33.56
2022-08-24T16:15:48.142Z,33.61
2022-08-24T16:18:17.137Z,33.90
2022-08-24T16:20:47.125Z,34.08
2022-08-24T16:23:24.650Z,34.20
2022-08-24T16:26:21.081Z,34.20
2022-08-24T16:28:50.421Z,34.12
2022-08-24T16:31:54.090Z,34.21
2022-08-24T16:34:28.621Z,34.06
2022-08-24T16:36:57.067Z,34.57
2022-08-24T16:39:25.635Z,34.66
2022-08-24T16:41:57.497Z,34.60
2022-08-24T16:44:29.037Z,34.39
2022-08-24T16:46:56.987Z,34.68
2022-08-24T16:49:24.952Z,34.94
2022-08-24T16:51:52.924Z,35.21
2022-08-24T16:54:20.772Z,35.24
2022-08-24T16:56:48.762Z,35.37
2022-08-24T16:59:24.974Z,34.88
2022-08-24T17:01:52.985Z,34.92
2022-08-24T17:04:21.251Z,35.07
2022-08-24T17:06:52.542Z,35.16
2022-08-24T17:09:25.017Z,35.37
2022-08-24T17:11:53.040Z,35.21
2022-08-24T17:14:22.395Z,34.98
2022-08-24T17:16:50.510Z,34.82
2022-08-24T17:19:20.710Z,34.64
2022-08-24T17:21:49.287Z,34.39
2022-08-24T17:24:20.924Z,33.80
2022-08-24T17:26:50.862Z,32.61
2022-08-24T17:29:19.831Z,32.19
2022-08-24T17:31:50.676Z,31.63
2022-08-24T17:34:20.450Z,30.93
2022-08-24T17:36:50.063Z,30.74
2022-08-24T17:39:19.388Z,30.54
2022-08-24T17:41:47.667Z,30.33
2022-08-24T17:44:19.583Z,30.20
2022-08-24T17:46:51.522Z,30.04
2022-08-24T17:49:19.909Z,29.84
2022-08-24T17:51:49.611Z,29.74
2022-08-24T17:54:17.666Z,29.57
2022-08-24T17:56:48.659Z,29.42
2022-08-24T17:59:23.509Z,29.26
2022-08-24T18:01:54.939Z,29.10
2022-08-24T18:04:27.545Z,28.94
2022-08-24T18:06:58.058Z,28.81
2022-08-24T18:09:30.844Z,28.61
2022-08-24T18:12:03.865Z,28.42
2022-08-24T18:14:34.401Z,28.33
2022-08-24T18:17:07.522Z,28.20
2022-08-24T18:19:36.169Z,28.08
2022-08-24T18:22:05.320Z,27.98
2022-08-24T18:24:33.979Z,27.87
2022-08-24T18:27:10.187Z,27.74
2022-08-24T18:29:40.452Z,27.64
2022-08-24T18:32:12.222Z,27.54
2022-08-24T18:34:41.136Z,27.38
2022-08-24T18:37:09.435Z,27.31
2022-08-24T18:39:37.609Z,27.17
2022-08-24T18:42:08.867Z,27.05
2022-08-24T18:44:38.753Z,27.00
2022-08-24T18:47:07.132Z,26.85
2022-08-24T18:49:36.657Z,26.84
2022-08-24T18:52:07.663Z,26.71
2022-08-24T18:54:39.245Z,26.68
2022-08-24T18:57:08.645Z,26.56
2022-08-24T18:59:40.667Z,26.50
2022-08-24T19:02:29.917Z,26.47
2022-08-24T19:05:01.493Z,26.38
2022-08-24T19:07:32.787Z,26.28
2022-08-24T19:10:01.233Z,26.24
2022-08-24T19:12:31.572Z,26.12
2022-08-24T19:15:01.961Z,26.09
2022-08-24T19:17:30.069Z,26.03
2022-08-24T19:19:59.460Z,25.92
2022-08-24T19:22:27.775Z,25.88
2022-08-24T19:24:56.325Z,25.80
2022-08-24T19:27:25.418Z,25.77
2022-08-24T19:29:55.889Z,25.70
2022-08-24T19:32:26.857Z,25.65
2022-08-24T19:34:55.563Z,25.61
2022-08-24T19:37:24.876Z,25.60
2022-08-24T19:39:53.135Z,25.49
2022-08-24T19:42:22.508Z,25.41
2022-08-24T19:45:10.986Z,25.39
2022-08-24T19:47:39.840Z,25.36
2022-08-24T19:50:08.947Z,25.32
2022-08-24T19:52:39.860Z,25.23
2022-08-24T19:55:10.643Z,25.17
2022-08-24T19:57:44.211Z,25.09
2022-08-24T20:00:28.959Z,25.11
2022-08-24T20:02:58.761Z,25.03
2022-08-24T20:05:28.988Z,25.01
2022-08-24T20:07:59.864Z,24.95
2022-08-24T20:10:28.101Z,24.88
2022-08-24T20:12:56.145Z,24.83
2022-08-24T20:15:25.012Z,24.75
2022-08-24T20:17:56.435Z,24.73
2022-08-24T20:20:27.171Z,24.65
2022-08-24T20:22:55.642Z,24.59
2022-08-24T20:25:24.894Z,24.59
2022-08-24T20:28:12.199Z,24.56
2022-08-24T20:30:43.053Z,24.49
2022-08-24T20:33:16.179Z,24.39
2022-08-24T20:35:44.849Z,24.38
2022-08-24T20:38:16.152Z,24.28
2022-08-24T20:40:45.415Z,24.24
2022-08-24T20:43:13.522Z,24.23
2022-08-24T20:45:42.063Z,24.17
2022-08-24T20:48:11.973Z,24.12
2022-08-24T20:50:43.391Z,24.09
2022-08-24T20:53:12.291Z,24.04
2022-08-24T20:55:41.545Z,24.00
2022-08-24T20:58:11.169Z,23.96
2022-08-24T21:00:40.926Z,23.89
2022-08-24T21:03:08.980Z,23.85
2022-08-24T21:05:37.224Z,23.81
2022-08-24T21:08:06.161Z,23.76
2022-08-24T21:10:33.979Z,23.70
2022-08-24T21:13:02.526Z,23.65
2022-08-24T21:15:32.166Z,23.59
2022-08-24T21:18:00.035Z,23.55
2022-08-24T21:20:28.443Z,23.48
2022-08-24T21:22:57.343Z,23.45
2022-08-24T21:25:25.762Z,23.39
2022-08-24T21:27:54.201Z,23.32
2022-08-24T21:30:24.098Z,23.28
2022-08-24T21:33:10.825Z,23.22
2022-08-24T21:35:39.171Z,23.18
2022-08-24T21:38:08.477Z,23.13
2022-08-24T21:40:36.772Z,23.08
2022-08-24T21:43:09.318Z,23.06
2022-08-24T21:45:43.020Z,23.00
2022-08-24T21:48:14.451Z,22.95
2022-08-24T21:50:42.602Z,22.91
2022-08-24T21:53:10.602Z,22.87
2022-08-24T21:55:39.005Z,22.82
2022-08-24T21:58:06.989Z,22.81
2022-08-24T22:00:35.554Z,22.74
2022-08-24T22:03:04.410Z,22.72
2022-08-24T22:05:34.066Z,22.69
2022-08-24T22:08:02.000Z,22.62
2022-08-24T22:10:31.570Z,22.60
2022-08-24T22:13:03.976Z,22.55
2022-08-24T22:15:32.773Z,22.51
2022-08-24T22:18:01.295Z,22.46
2022-08-24T22:20:29.306Z,22.39
2022-08-24T22:22:59.400Z,22.39
2022-08-24T22:25:27.562Z,22.37
2022-08-24T22:27:55.391Z,22.32
2022-08-24T22:30:23.287Z,22.31
2022-08-24T22:32:51.236Z,22.24
2022-08-24T22:35:19.366Z,22.17
2022-08-24T22:37:47.751Z,22.18
2022-08-24T22:40:19.022Z,22.15
2022-08-24T22:42:47.169Z,22.10
2022-08-24T22:45:15.640Z,22.08
2022-08-24T22:47:43.542Z,22.04
2022-08-24T22:50:11.684Z,22.01
2022-08-24T22:52:39.706Z,21.96
2022-08-24T22:55:08.713Z,21.96
2022-08-24T22:57:37.912Z,21.88
2022-08-24T23:00:07.731Z,21.88
2022-08-24T23:02:36.993Z,21.88
2022-08-24T23:05:05.395Z,21.78
2022-08-24T23:07:35.293Z,21.76
2022-08-24T23:10:03.283Z,21.76
2022-08-24T23:12:31.145Z,21.73
2022-08-24T23:15:00.726Z,21.72
2022-08-24T23:17:28.676Z,21.66
2022-08-24T23:20:01.847Z,21.65
2022-08-24T23:22:32.376Z,21.61
2022-08-24T23:25:01.396Z,21.60
2022-08-24T23:27:32.803Z,21.55
2022-08-24T23:30:10.683Z,21.52
2022-08-24T23:32:39.080Z,21.48
2022-08-24T23:35:08.010Z,21.45
2022-08-24T23:37:36.012Z,21.40
2022-08-24T23:40:04.653Z,21.38
2022-08-24T23:42:32.504Z,21.35
2022-08-24T23:45:00.306Z,21.33
2022-08-24T23:47:30.272Z,21.28
2022-08-24T23:50:04.410Z,21.25
2022-08-24T23:52:39.242Z,21.17
2022-08-24T23:55:21.908Z,21.09
2022-08-24T23:57:51.151Z,21.06
